createdAt,value
2023-01-23T00:01:39.693Z,1.20
2023-01-23T00:04:08.042Z,1.30
2023-01-23T00:06:35.936Z,1.20
2023-01-23T00:09:04.372Z,1.20
2023-01-23T00:11:34.497Z,1.20
2023-01-23T00:14:03.828Z,1.20
2023-01-23T00:16:33.927Z,1.20
2023-01-23T00:19:01.964Z,1.20
2023-01-23T00:21:31.100Z,1.20
2023-01-23T00:24:01.485Z,1.20
2023-01-23T00:26:33.758Z,1.20
2023-01-23T00:29:02.021Z,1.10
2023-01-23T00:31:33.045Z,1.10
2023-01-23T00:34:04.051Z,1.10
2023-01-23T00:36:36.733Z,1.10
2023-01-23T00:39:08.637Z,1.10
2023-01-23T00:41:37.834Z,1.10
2023-01-23T00:44:05.942Z,1.10
2023-01-23T00:46:34.884Z,1.10
2023-01-23T00:49:02.875Z,1.10
2023-01-23T00:51:30.950Z,1.10
2023-01-23T00:53:58.843Z,1.10
2023-01-23T00:56:26.823Z,1.20
2023-01-23T00:58:56.982Z,1.10
2023-01-23T01:01:26.005Z,1.10
2023-01-23T01:03:54.475Z,1.10
2023-01-23T01:06:22.730Z,1.10
2023-01-23T01:08:51.545Z,1.10
2023-01-23T01:11:22.239Z,1.10
2023-01-23T01:13:50.438Z,1.10
2023-01-23T01:16:20.731Z,1.10
2023-01-23T01:18:48.634Z,1.10
2023-01-23T01:21:17.667Z,1.20
2023-01-23T01:23:46.652Z,1.10
2023-01-23T01:26:15.049Z,1.10
2023-01-23T01:28:43.863Z,1.10
2023-01-23T01:31:15.165Z,1.10
2023-01-23T01:33:45.511Z,1.10
2023-01-23T01:36:17.840Z,1.20
2023-01-23T01:38:48.767Z,1.20
2023-01-23T01:41:17.940Z,1.20
2023-01-23T01:43:46.660Z,1.10
2023-01-23T01:46:22.716Z,1.20
2023-01-23T01:49:07.209Z,1.20
2023-01-23T01:51:40.241Z,1.20
2023-01-23T01:54:28.725Z,1.20
2023-01-23T01:57:03.446Z,1.20
2023-01-23T01:59:36.303Z,1.20
2023-01-23T02:02:13.234Z,1.30
2023-01-23T02:04:48.373Z,1.30
2023-01-23T02:07:26.983Z,1.30
2023-01-23T02:09:56.334Z,1.20
2023-01-23T02:12:26.814Z,1.20
2023-01-23T02:14:55.102Z,1.10
2023-01-23T02:17:23.226Z,1.20
2023-01-23T02:20:04.234Z,1.20
2023-01-23T02:22:45.598Z,1.20
2023-01-23T02:25:29.576Z,1.20
2023-01-23T02:27:59.537Z,1.20
2023-01-23T02:30:27.880Z,1.20
2023-01-23T02:33:10.407Z,1.20
2023-01-23T02:35:38.818Z,1.20
2023-01-23T02:38:10.868Z,1.20
2023-01-23T02:40:43.065Z,1.20
2023-01-23T02:43:28.331Z,1.10
2023-01-23T02:46:03.114Z,1.10
2023-01-23T02:48:31.373Z,1.10
2023-01-23T02:51:01.489Z,1.20
2023-01-23T02:53:30.591Z,1.20
2023-01-23T02:56:00.802Z,1.20
2023-01-23T02:58:47.377Z,1.20
2023-01-23T03:01:15.400Z,1.20
2023-01-23T03:03:43.408Z,1.20
2023-01-23T03:06:12.557Z,1.20
2023-01-23T03:08:47.409Z,1.10
2023-01-23T03:11:17.903Z,1.20
2023-01-23T03:13:48.775Z,1.20
2023-01-23T03:16:16.994Z,1.20
2023-01-23T03:18:54.011Z,1.20
2023-01-23T03:21:22.417Z,1.20
2023-01-23T03:23:50.447Z,1.20
2023-01-23T03:26:19.318Z,1.20
2023-01-23T03:29:07.716Z,1.20
2023-01-23T03:31:36.064Z,1.10
2023-01-23T03:34:04.018Z,1.10
2023-01-23T03:36:37.236Z,1.10
2023-01-23T03:39:24.778Z,1.10
2023-01-23T03:41:54.014Z,1.10
2023-01-23T03:44:24.881Z,1.10
2023-01-23T03:46:53.805Z,1.10
2023-01-23T03:49:24.540Z,1.10
2023-01-23T03:52:00.054Z,1.10
2023-01-23T03:54:31.431Z,1.10
2023-01-23T03:56:59.357Z,1.10
2023-01-23T03:59:51.479Z,1.10
2023-01-23T04:02:22.061Z,1.10
2023-01-23T04:04:49.950Z,1.20
2023-01-23T04:07:18.829Z,1.20
2023-01-23T04:09:46.787Z,1.20
2023-01-23T04:12:15.021Z,1.10
2023-01-23T04:14:46.014Z,1.10
2023-01-23T04:17:17.070Z,1.10
2023-01-23T04:19:45.076Z,1.10
2023-01-23T04:22:12.974Z,1.20
2023-01-23T04:24:46.841Z,1.20
2023-01-23T04:27:14.855Z,1.60
2023-01-23T04:29:42.923Z,1.10
2023-01-23T04:32:11.068Z,1.20
2023-01-23T04:34:46.537Z,1.10
2023-01-23T04:37:15.231Z,1.20
2023-01-23T04:39:43.374Z,1.30
2023-01-23T04:42:11.529Z,1.40
2023-01-23T04:44:50.622Z,1.40
2023-01-23T04:47:37.713Z,1.40
2023-01-23T04:50:13.660Z,1.30
2023-01-23T04:52:45.143Z,1.30
2023-01-23T04:55:13.839Z,1.30
2023-01-23T04:57:42.308Z,1.40
2023-01-23T05:00:23.528Z,1.40
2023-01-23T05:02:52.232Z,1.30
2023-01-23T05:05:21.899Z,1.30
2023-01-23T05:07:53.446Z,1.30
2023-01-23T05:10:22.150Z,1.30
2023-01-23T05:12:50.857Z,1.20
2023-01-23T05:15:21.091Z,1.30
2023-01-23T05:17:49.553Z,1.30
2023-01-23T05:20:18.033Z,1.30
2023-01-23T05:22:53.071Z,1.30
2023-01-23T05:25:29.357Z,1.30
2023-01-23T05:27:59.843Z,0.30
2023-01-23T05:30:27.826Z,1.40
2023-01-23T05:33:07.777Z,1.30
2023-01-23T05:35:37.416Z,1.30
2023-01-23T05:38:06.807Z,1.40
2023-01-23T05:40:35.121Z,1.40
2023-01-23T05:43:21.540Z,1.50
2023-01-23T05:46:07.960Z,1.50
2023-01-23T05:48:50.986Z,1.50
2023-01-23T05:51:31.336Z,1.40
2023-01-23T05:54:02.538Z,1.40
2023-01-23T05:56:31.449Z,1.50
2023-01-23T05:59:18.025Z,1.50
2023-01-23T06:02:16.090Z,1.50
2023-01-23T06:05:19.670Z,1.60
2023-01-23T06:08:01.565Z,1.60
2023-01-23T06:10:34.083Z,1.60
2023-01-23T06:13:02.077Z,1.60
2023-01-23T06:15:30.230Z,1.60
2023-01-23T06:18:01.124Z,1.50
2023-01-23T06:20:29.127Z,1.50
2023-01-23T06:22:57.819Z,1.50
2023-01-23T06:25:27.525Z,1.50
2023-01-23T06:27:59.415Z,1.40
2023-01-23T06:30:30.273Z,1.50
2023-01-23T06:32:58.447Z,1.50
2023-01-23T06:35:33.940Z,1.50
2023-01-23T06:38:01.873Z,1.60
2023-01-23T06:40:30.335Z,1.50
2023-01-23T06:43:15.355Z,1.50
2023-01-23T06:45:45.272Z,1.50
2023-01-23T06:48:13.461Z,1.40
2023-01-23T06:50:44.545Z,1.30
2023-01-23T06:53:16.409Z,1.40
2023-01-23T06:55:46.519Z,1.40
2023-01-23T06:58:17.132Z,1.40
2023-01-23T07:00:45.288Z,1.50
2023-01-23T07:03:27.184Z,1.50
2023-01-23T07:05:55.209Z,1.40
2023-01-23T07:08:23.156Z,1.30
2023-01-23T07:10:51.640Z,1.30
2023-01-23T07:13:21.331Z,1.50
2023-01-23T07:15:51.390Z,1.50
2023-01-23T07:18:19.441Z,1.60
2023-01-23T07:20:49.657Z,1.60
2023-01-23T07:23:18.372Z,1.60
2023-01-23T07:25:46.635Z,1.70
2023-01-23T07:28:15.109Z,1.70
2023-01-23T07:30:44.365Z,1.70
2023-01-23T07:33:13.471Z,1.60
2023-01-23T07:35:41.486Z,1.60
2023-01-23T07:38:09.358Z,1.50
2023-01-23T07:40:38.889Z,1.50
2023-01-23T07:43:06.839Z,1.50
2023-01-23T07:45:34.867Z,1.50
2023-01-23T07:48:04.818Z,1.50
2023-01-23T07:50:32.703Z,1.50
2023-01-23T07:53:01.005Z,1.50
2023-01-23T07:55:29.175Z,1.60
2023-01-23T07:57:57.202Z,1.60
2023-01-23T08:00:29.211Z,1.60
2023-01-23T08:02:58.106Z,1.60
2023-01-23T08:05:27.635Z,1.60
2023-01-23T08:08:11.355Z,1.50
2023-01-23T08:10:39.806Z,1.40
2023-01-23T08:13:07.936Z,1.40
2023-01-23T08:15:35.818Z,1.50
2023-01-23T08:18:03.695Z,1.40
2023-01-23T08:20:32.986Z,1.40
2023-01-23T08:23:02.240Z,1.30
2023-01-23T08:25:31.239Z,1.30
2023-01-23T08:27:59.506Z,1.30
2023-01-23T08:30:27.378Z,1.30
2023-01-23T08:32:55.327Z,1.20
2023-01-23T08:35:23.302Z,1.20
2023-01-23T08:37:52.667Z,1.70
2023-01-23T08:40:21.381Z,1.30
2023-01-23T08:42:49.411Z,1.30
2023-01-23T08:45:17.550Z,1.30
2023-01-23T08:47:45.420Z,1.30
2023-01-23T08:50:16.605Z,0.90
2023-01-23T08:52:44.832Z,1.40
2023-01-23T08:55:14.141Z,1.40
2023-01-23T08:57:42.357Z,1.40
2023-01-23T09:00:12.689Z,1.40
2023-01-23T09:02:40.560Z,1.40
2023-01-23T09:05:09.982Z,1.40
2023-01-23T09:07:38.049Z,1.40
2023-01-23T09:10:07.917Z,1.30
2023-01-23T09:12:37.271Z,1.30
2023-01-23T09:15:05.848Z,1.30
2023-01-23T09:17:33.739Z,1.40
2023-01-23T09:20:01.775Z,1.40
2023-01-23T09:22:29.644Z,1.40
2023-01-23T09:24:57.858Z,1.30
2023-01-23T09:27:26.060Z,1.30
2023-01-23T09:29:55.987Z,1.30
2023-01-23T09:32:23.871Z,1.20
2023-01-23T09:34:51.764Z,1.20
2023-01-23T09:37:20.073Z,1.40
2023-01-23T09:39:48.046Z,1.40
2023-01-23T09:42:21.799Z,1.40
2023-01-23T09:44:58.032Z,1.50
2023-01-23T09:47:33.750Z,1.50
2023-01-23T09:50:08.904Z,1.50
2023-01-23T09:52:46.720Z,1.40
2023-01-23T09:55:24.051Z,1.40
2023-01-23T09:57:56.340Z,1.30
2023-01-23T10:00:29.964Z,1.30
2023-01-23T10:02:59.140Z,1.30
2023-01-23T10:05:36.115Z,1.40
2023-01-23T10:08:22.741Z,2.50
2023-01-23T10:11:01.020Z,1.50
2023-01-23T10:13:52.217Z,1.50
2023-01-23T10:16:49.886Z,1.50
2023-01-23T10:19:39.111Z,1.60
2023-01-23T10:22:26.054Z,1.70
2023-01-23T10:24:57.897Z,1.60
2023-01-23T10:27:34.559Z,1.60
2023-01-23T10:30:19.068Z,1.70
2023-01-23T10:32:56.923Z,1.70
2023-01-23T10:35:35.848Z,1.70
2023-01-23T10:38:21.350Z,1.60
2023-01-23T10:41:07.705Z,1.60
2023-01-23T10:43:37.066Z,1.60
2023-01-23T10:46:12.899Z,1.60
2023-01-23T10:48:46.790Z,1.50
2023-01-23T10:51:44.651Z,1.60
2023-01-23T10:54:31.216Z,1.60
2023-01-23T10:57:02.838Z,1.60
2023-01-23T10:59:36.544Z,1.70
2023-01-23T11:02:22.186Z,1.80
2023-01-23T11:04:54.818Z,1.90
2023-01-23T11:07:26.940Z,1.80
2023-01-23T11:09:59.296Z,1.80
2023-01-23T11:12:29.472Z,1.70
2023-01-23T11:15:22.522Z,1.60
2023-01-23T11:17:52.539Z,1.70
2023-01-23T11:20:30.704Z,1.80
2023-01-23T11:23:06.992Z,1.80
2023-01-23T11:25:39.081Z,1.90
2023-01-23T11:28:23.697Z,2.00
2023-01-23T11:31:11.863Z,2.10
2023-01-23T11:33:52.529Z,2.10
2023-01-23T11:36:49.409Z,2.00
2023-01-23T11:39:41.134Z,2.00
2023-01-23T11:42:12.019Z,1.90
2023-01-23T11:44:46.479Z,2.00
2023-01-23T11:47:37.070Z,1.90
2023-01-23T11:50:30.289Z,1.90
2023-01-23T11:53:12.385Z,1.80
2023-01-23T11:56:29.753Z,1.70
2023-01-23T11:59:19.656Z,1.80
2023-01-23T12:02:06.837Z,1.80
2023-01-23T12:05:10.098Z,1.80
2023-01-23T12:07:51.932Z,1.80
2023-01-23T12:10:30.899Z,1.80
2023-01-23T12:13:25.134Z,1.90
2023-01-23T12:16:15.132Z,1.90
2023-01-23T12:19:06.433Z,1.80
2023-01-23T12:21:43.732Z,1.70
2023-01-23T12:24:27.984Z,1.60
2023-01-23T12:27:07.249Z,1.80
2023-01-23T12:30:13.333Z,1.90
2023-01-23T12:33:09.156Z,1.90
2023-01-23T12:35:54.885Z,1.90
2023-01-23T12:38:32.152Z,1.90
2023-01-23T12:41:21.521Z,1.80
2023-01-23T12:44:01.070Z,1.80
2023-01-23T12:46:37.728Z,1.80
2023-01-23T12:49:22.372Z,1.80
2023-01-23T12:51:58.445Z,1.80
2023-01-23T12:54:41.856Z,2.30
2023-01-23T12:57:13.446Z,1.70
2023-01-23T12:59:59.930Z,1.70
2023-01-23T13:02:41.386Z,1.60
2023-01-23T13:05:23.040Z,1.70
2023-01-23T13:08:01.624Z,1.80
2023-01-23T13:11:18.821Z,1.80
2023-01-23T13:13:47.754Z,1.90
2023-01-23T13:16:19.667Z,1.80
2023-01-23T13:19:13.686Z,1.80
2023-01-23T13:22:04.745Z,1.70
2023-01-23T13:25:04.024Z,1.70
2023-01-23T13:27:42.139Z,1.80
2023-01-23T13:30:44.511Z,1.80
2023-01-23T13:33:51.552Z,1.80
2023-01-23T13:36:32.881Z,1.80
2023-01-23T13:39:22.466Z,1.80
2023-01-23T13:41:53.981Z,1.80
2023-01-23T13:44:35.772Z,1.80
2023-01-23T14:22:55.965Z,2.00
2023-01-23T14:25:24.541Z,2.00
2023-01-23T14:28:04.563Z,2.00
2023-01-23T14:30:32.545Z,2.00
2023-01-23T14:33:00.652Z,2.10
2023-01-23T14:35:31.439Z,2.20
2023-01-23T14:38:06.074Z,2.20
2023-01-23T14:40:49.315Z,2.20
2023-01-23T14:43:23.291Z,2.20
2023-01-23T14:46:01.206Z,2.30
2023-01-23T14:48:30.598Z,2.30
2023-01-23T14:51:10.225Z,2.30
2023-01-23T14:53:43.264Z,2.30
2023-01-23T14:56:14.850Z,2.40
2023-01-23T14:58:43.614Z,2.30
2023-01-23T15:01:12.277Z,2.30
2023-01-23T15:03:43.684Z,2.30
2023-01-23T15:06:16.851Z,2.30
2023-01-23T15:08:47.718Z,2.30
2023-01-23T15:11:16.184Z,2.30
2023-01-23T15:13:50.281Z,2.30
2023-01-23T15:16:24.334Z,2.40
2023-01-23T15:19:01.104Z,2.40
2023-01-23T15:21:39.410Z,2.50
2023-01-23T15:24:26.117Z,2.50
2023-01-23T15:27:04.957Z,2.50
2023-01-23T15:29:34.838Z,2.50
2023-01-23T15:32:03.338Z,2.50
2023-01-23T15:34:34.726Z,2.50
2023-01-23T15:37:08.371Z,2.50
2023-01-23T15:39:41.054Z,2.50
2023-01-23T15:42:29.089Z,2.50
2023-01-23T15:45:01.071Z,2.50
2023-01-23T15:47:31.187Z,2.50
2023-01-23T15:50:01.493Z,2.40
2023-01-23T15:52:32.451Z,2.40
2023-01-23T15:55:05.652Z,2.30
2023-01-23T15:57:33.861Z,2.40
2023-01-23T16:00:01.811Z,2.30
2023-01-23T16:02:54.784Z,2.20
2023-01-23T16:05:27.279Z,2.10
2023-01-23T16:07:56.983Z,2.10
2023-01-23T16:10:29.815Z,2.10
2023-01-23T16:12:59.473Z,2.10
2023-01-23T16:15:30.640Z,2.10
2023-01-23T16:17:58.565Z,2.20
2023-01-23T16:20:30.748Z,2.20
2023-01-23T16:23:14.074Z,2.10
2023-01-23T16:25:46.161Z,2.10
2023-01-23T16:28:15.408Z,2.20
2023-01-23T16:30:44.510Z,2.20
2023-01-23T16:33:13.078Z,2.10
2023-01-23T16:35:42.501Z,2.10
2023-01-23T16:38:21.790Z,2.00
2023-01-23T16:40:53.148Z,2.00
2023-01-23T16:43:22.481Z,2.00
2023-01-23T16:45:53.689Z,2.10
2023-01-23T16:48:27.461Z,2.00
2023-01-23T16:51:01.788Z,2.00
2023-01-23T16:53:33.866Z,2.00
2023-01-23T16:56:05.123Z,1.90
2023-01-23T16:58:39.261Z,1.90
2023-01-23T17:01:16.061Z,1.90
2023-01-23T17:03:45.671Z,1.90
2023-01-23T17:06:16.678Z,1.90
2023-01-23T17:08:44.958Z,1.90
2023-01-23T17:11:24.058Z,1.90
2023-01-23T17:13:59.450Z,1.80
2023-01-23T17:16:28.441Z,1.70
2023-01-23T17:18:59.760Z,1.70
2023-01-23T17:21:34.466Z,1.70
2023-01-23T17:24:02.835Z,1.70
2023-01-23T17:26:32.470Z,1.60
2023-01-23T17:29:00.613Z,1.70
2023-01-23T17:31:32.358Z,1.70
2023-01-23T17:34:01.251Z,1.70
2023-01-23T17:36:29.127Z,1.70
2023-01-23T17:39:00.132Z,1.70
2023-01-23T17:41:28.235Z,1.70
2023-01-23T17:43:57.420Z,1.70
2023-01-23T17:46:28.598Z,1.60
2023-01-23T17:48:57.784Z,1.70
2023-01-23T17:51:27.303Z,1.60
2023-01-23T17:53:55.256Z,1.70
2023-01-23T17:56:23.160Z,1.70
2023-01-23T17:58:51.088Z,1.80
2023-01-23T18:01:24.084Z,1.80
2023-01-23T18:03:53.960Z,1.70
2023-01-23T18:06:21.887Z,1.70
2023-01-23T18:08:49.793Z,1.60
2023-01-23T18:11:21.524Z,1.60
2023-01-23T18:14:15.221Z,1.60
2023-01-23T18:16:47.993Z,1.70
2023-01-23T18:19:19.742Z,1.70
2023-01-23T18:21:51.433Z,1.60
2023-01-23T18:24:27.369Z,1.60
2023-01-23T18:27:02.061Z,1.60
2023-01-23T18:29:48.482Z,1.60
2023-01-23T18:32:54.417Z,1.50
2023-01-23T18:35:38.540Z,1.60
2023-01-23T18:38:19.649Z,1.60
2023-01-23T18:41:10.692Z,1.70
2023-01-23T18:43:40.877Z,1.70
2023-01-23T18:46:15.252Z,1.70
2023-01-23T18:48:47.852Z,1.70
2023-01-23T18:51:33.441Z,1.70
2023-01-23T18:54:18.755Z,1.70
2023-01-23T18:57:05.502Z,1.70
2023-01-23T18:59:49.254Z,1.70
2023-01-23T19:02:30.511Z,1.70
2023-01-23T19:05:29.716Z,1.70
2023-01-23T19:07:59.756Z,1.70
2023-01-23T19:10:40.145Z,1.60
2023-01-23T19:13:21.283Z,1.60
2023-01-23T19:16:01.889Z,1.60
2023-01-23T19:18:46.211Z,1.60
2023-01-23T19:21:22.991Z,1.60
2023-01-23T19:23:59.293Z,1.70
2023-01-23T19:26:29.794Z,1.70
2023-01-23T19:29:01.551Z,1.70
2023-01-23T19:31:32.781Z,1.70
2023-01-23T19:34:02.555Z,1.80
2023-01-23T19:36:35.006Z,1.80
2023-01-23T19:39:06.614Z,1.90
2023-01-23T19:41:42.806Z,1.90
2023-01-23T19:44:16.333Z,1.90
2023-01-23T19:46:44.784Z,2.00
2023-01-23T19:49:13.673Z,2.00
2023-01-23T19:51:44.202Z,2.00
2023-01-23T19:54:14.012Z,2.10
2023-01-23T19:56:42.672Z,2.10
2023-01-23T19:59:16.362Z,0.80
2023-01-23T20:01:48.606Z,2.30
2023-01-23T20:04:20.527Z,2.80
2023-01-23T20:06:51.747Z,2.30
2023-01-23T20:09:20.525Z,2.30
2023-01-23T20:11:48.968Z,2.40
2023-01-23T20:14:17.015Z,2.40
2023-01-23T20:16:44.940Z,2.30
2023-01-23T20:19:15.310Z,2.20
2023-01-23T20:21:44.091Z,2.20
2023-01-23T20:24:14.014Z,2.20
2023-01-23T20:26:42.431Z,2.20
2023-01-23T20:29:12.242Z,2.10
2023-01-23T20:31:40.306Z,2.10
2023-01-23T20:34:08.262Z,2.00
2023-01-23T20:36:36.143Z,2.10
2023-01-23T20:39:05.195Z,2.20
2023-01-23T20:41:34.510Z,2.20
2023-01-23T20:44:02.692Z,2.10
2023-01-23T20:46:30.849Z,2.10
2023-01-23T20:48:59.633Z,2.10
2023-01-23T20:51:27.530Z,2.10
2023-01-23T20:53:54.730Z,2.10
2023-01-23T20:56:27.355Z,2.00
2023-01-23T20:59:15.864Z,2.00
2023-01-23T21:02:02.223Z,1.90
2023-01-23T21:04:33.972Z,1.90
2023-01-23T21:07:03.035Z,1.90
2023-01-23T21:09:31.388Z,1.80
2023-01-23T21:12:00.710Z,1.70
2023-01-23T21:14:30.900Z,1.70
2023-01-23T21:16:59.072Z,1.70
2023-01-23T21:19:30.238Z,1.70
2023-01-23T21:21:58.470Z,1.80
2023-01-23T21:24:27.355Z,1.70
2023-01-23T21:26:55.402Z,1.80
2023-01-23T21:29:23.283Z,1.80
2023-01-23T21:31:52.524Z,1.90
2023-01-23T21:34:20.742Z,1.90
2023-01-23T21:36:48.738Z,1.80
2023-01-23T21:39:17.689Z,1.80
2023-01-23T21:41:45.718Z,1.80
2023-01-23T21:44:14.637Z,1.70
2023-01-23T21:46:42.843Z,1.70
2023-01-23T21:49:12.308Z,1.70
2023-01-23T21:51:40.710Z,1.70
2023-01-23T21:54:08.667Z,1.70
2023-01-23T21:56:37.376Z,1.70
2023-01-23T21:59:05.574Z,1.70
2023-01-23T22:01:33.133Z,1.70
2023-01-23T22:04:04.365Z,1.60
2023-01-23T22:06:35.183Z,1.60
2023-01-23T22:09:07.509Z,1.60
2023-01-23T22:11:36.441Z,1.70
2023-01-23T22:14:05.224Z,1.60
2023-01-23T22:16:47.940Z,1.60
2023-01-23T22:19:20.684Z,1.60
2023-01-23T22:21:51.329Z,1.60
2023-01-23T22:24:19.470Z,0.90
2023-01-23T22:26:47.387Z,1.50
2023-01-23T22:29:22.779Z,1.60
2023-01-23T22:31:51.202Z,1.60
2023-01-23T22:34:19.167Z,1.60
2023-01-23T22:36:47.069Z,1.60
2023-01-23T22:39:16.807Z,1.50
2023-01-23T22:41:45.787Z,1.60
2023-01-23T22:44:14.787Z,1.60
2023-01-23T22:46:42.810Z,1.50
2023-01-23T22:49:11.210Z,1.50
2023-01-23T22:51:39.115Z,1.50
2023-01-23T22:54:07.051Z,1.50
2023-01-23T22:56:36.317Z,1.50
2023-01-23T22:59:04.348Z,1.50
2023-01-23T23:01:32.628Z,1.50
2023-01-23T23:04:01.518Z,1.50
2023-01-23T23:06:29.889Z,1.50
2023-01-23T23:08:57.786Z,1.50
2023-01-23T23:11:28.787Z,1.40
2023-01-23T23:13:58.969Z,1.50
2023-01-23T23:16:30.926Z,1.50
2023-01-23T23:19:02.750Z,1.40
2023-01-23T23:21:35.602Z,1.50
2023-01-23T23:24:06.122Z,1.50
2023-01-23T23:26:35.035Z,1.50
2023-01-23T23:29:05.151Z,1.50
2023-01-23T23:31:33.900Z,1.50
2023-01-23T23:34:02.099Z,1.40
2023-01-23T23:36:30.035Z,1.40
2023-01-23T23:38:58.186Z,1.30
2023-01-23T23:41:26.333Z,1.30
2023-01-23T23:43:54.536Z,1.30
2023-01-23T23:46:23.816Z,1.40
2023-01-23T23:48:51.723Z,1.40
2023-01-23T23:51:22.758Z,1.50
2023-01-23T23:53:51.273Z,1.50
2023-01-23T23:56:22.996Z,1.50
2023-01-23T23:58:51.764Z,1.50
